Time;durP1;ratioP1;P1;durP2;ratioP2;P2;SDS_P1;SDS_P2;PMS_P1;PMS_P2;Temp;Humidity;BMP_temperature;BMP_pressure;BME280_temperature;BME280_humidity;BME280_pressure;Samples;Min_cycle;Max_cycle;Signal;HPM_P1;HPM_P2
2021/08/28 00:00:10;;;;;;;23.45;8.05;;;19.10;99.90;;;19.66;74.88;101989.69;5113804;28;20078;-74
2021/08/28 00:02:39;;;;;;;19.25;7.78;;;19.10;99.90;;;19.57;74.90;101984.50;5113842;28;20048;-74
2021/08/28 00:05:09;;;;;;;23.73;7.40;;;19.10;99.90;;;19.52;74.96;101984.66;5113709;28;20039;-74
2021/08/28 00:07:37;;;;;;;20.50;7.70;;;19.10;99.90;;;19.44;75.45;101988.41;5113744;28;20039;-74
2021/08/28 00:10:07;;;;;;;20.08;6.88;;;19.00;99.90;;;19.43;75.47;101986.66;5113716;28;20040;-74
2021/08/28 00:12:38;;;;;;;23.92;7.85;;;19.00;99.90;;;19.39;75.48;101977.81;5113642;28;20448;-74
2021/08/28 00:15:10;;;;;;;;;;;19.00;99.90;;;19.43;75.20;101981.28;5096178;28;20044;-74
2021/08/28 00:17:39;;;;;;;22.42;7.82;;;19.00;99.90;;;19.44;75.28;101988.41;5113943;28;20578;-74
2021/08/28 00:20:11;;;;;;;25.13;7.97;;;19.00;99.90;;;19.32;75.25;101959.13;5113840;28;20043;-74
2021/08/28 00:22:40;;;;;;;16.83;6.75;;;19.00;99.90;;;19.55;74.92;101976.50;5113815;28;20043;-74
2021/08/28 00:25:10;;;;;;;21.38;7.63;;;19.10;99.90;;;19.47;74.90;101966.88;5113725;28;20039;-74
2021/08/28 00:27:39;;;;;;;24.80;7.40;;;19.10;99.90;;;19.51;74.89;101971.25;5113503;28;20048;-74
2021/08/28 00:30:11;;;;;;;20.75;8.02;;;19.10;99.90;;;19.60;74.75;101984.47;5113713;28;20116;-74
2021/08/28 00:32:40;;;;;;;19.05;7.07;;;19.10;99.90;;;19.59;74.83;101974.63;5113703;28;20478;-74
2021/08/28 00:35:12;;;;;;;17.15;6.63;;;19.10;99.90;;;19.59;74.78;101975.50;5113746;28;20044;-74
2021/08/28 00:37:41;;;;;;;19.33;6.65;;;19.10;99.90;;;19.53;74.93;101974.78;5113280;28;20566;-74
2021/08/28 00:40:10;;;;;;;17.92;7.47;;;19.10;99.90;;;19.32;75.10;101934.97;5095819;28;20090;-74
2021/08/28 00:42:51;;;;;;;20.10;7.00;;;19.10;99.90;;;19.66;75.03;101984.31;5113619;28;20097;-74
2021/08/28 00:45:21;;;;;;;19.27;7.30;;;19.20;99.90;;;19.69;74.75;101984.22;5095219;28;20112;-74
2021/08/28 00:47:53;;;;;;;18.70;8.18;;;19.20;99.90;;;19.64;75.33;101980.78;5113619;28;20084;-74
2021/08/28 00:50:22;;;;;;;18.92;6.97;;;19.20;99.90;;;19.58;75.28;101975.56;5113521;28;20054;-74
2021/08/28 00:52:53;;;;;;;19.25;6.80;;;19.10;99.90;;;19.55;75.28;101971.13;5113511;28;20391;-74
2021/08/28 00:55:23;;;;;;;20.83;7.47;;;19.10;99.90;;;19.60;75.29;101977.28;5114006;28;20394;-74
2021/08/28 00:57:51;;;;;;;18.40;7.20;;;19.10;99.90;;;19.54;75.70;101973.88;5117617;28;20406;-74
2021/08/28 01:00:22;;;;;;;24.88;7.60;;;19.10;99.90;;;19.58;75.55;101980.94;5117364;28;20035;-74
2021/08/28 01:02:51;;;;;;;;;;;19.10;99.90;;;19.52;75.42;101952.44;5099696;28;20055;-74
2021/08/28 01:05:26;;;;;;;18.90;7.88;;;19.20;99.90;;;19.40;75.99;101976.88;5117725;28;19920;-74
2021/08/28 01:08:06;;;;;;;25.13;8.30;;;19.00;99.90;;;19.38;76.36;102015.38;5099066;28;20394;-74
2021/08/28 01:10:59;;;;;;;16.20;7.25;;;19.00;99.90;;;19.50;76.14;101974.84;5099040;28;20046;-74
2021/08/28 01:13:39;;;;;;;17.23;7.10;;;19.00;99.90;;;19.40;76.87;101975.97;5099143;28;20066;-74
2021/08/28 01:16:11;;;;;;;16.45;7.35;;;18.90;99.90;;;19.46;76.60;101970.47;5099091;28;20048;-74
2021/08/28 01:18:40;;;;;;;15.85;6.75;;;19.00;99.90;;;19.38;76.41;101956.34;5099056;28;20044;-74
2021/08/28 01:21:19;;;;;;;18.00;7.88;;;19.00;99.90;;;19.47;76.04;101972.25;5099033;28;20122;-74
2021/08/28 01:24:08;;;;;;;18.15;7.50;;;19.00;99.90;;;19.48;76.00;101977.59;5117221;28;20051;-74
2021/08/28 01:27:03;;;;;;;16.92;7.40;;;19.10;99.90;;;19.52;76.07;101981.97;5117115;28;20081;-74
2021/08/28 01:29:36;;;;;;;19.27;7.82;;;19.10;99.90;;;19.56;75.76;101985.44;5098471;28;20050;-74
2021/08/28 01:32:05;;;;;;;14.88;6.78;;;19.10;99.90;;;19.45;75.69;101949.94;5116658;28;20067;-74
2021/08/28 01:34:34;;;;;;;22.98;7.47;;;19.10;99.90;;;19.57;75.61;101968.41;5098880;28;20131;-74
2021/08/28 01:37:05;;;;;;;17.70;6.97;;;19.20;99.90;;;19.40;75.70;101935.72;5098507;28;20044;-74
2021/08/28 01:40:04;;;;;;;13.68;6.38;;;19.20;99.90;;;19.47;75.41;101940.03;5098597;28;20138;-74
2021/08/28 01:42:46;;;;;;;19.73;7.32;;;19.30;99.90;;;19.68;75.54;101978.00;5098543;28;20055;-74
2021/08/28 01:45:17;;;;;;;18.05;7.80;;;19.20;99.90;;;19.47;75.73;101956.16;5098567;28;20059;-75
2021/08/28 01:47:53;;;;;;;20.73;7.35;;;19.10;99.90;;;19.54;76.05;101968.50;5098455;28;20245;-74
2021/08/28 01:50:25;;;;;;;13.77;6.30;;;19.10;99.90;;;19.58;76.04;101972.88;5116401;28;20047;-74
2021/08/28 01:53:00;;;;;;;14.27;6.80;;;19.10;99.90;;;19.60;75.77;101974.63;5098412;28;20130;-74
2021/08/28 01:55:30;;;;;;;18.20;7.25;;;19.20;99.90;;;19.67;75.57;101981.59;5116440;28;20064;-74
2021/08/28 01:58:05;;;;;;;22.98;8.70;;;19.20;99.90;;;19.64;75.46;101972.72;5098281;28;20044;-74
2021/08/28 02:01:01;;;;;;;17.58;7.22;;;19.30;99.90;;;19.67;75.59;101967.28;5098119;28;20405;-74
2021/08/28 02:03:42;;;;;;;15.48;7.32;;;19.30;99.90;;;19.60;75.44;101968.34;5098175;28;20520;-74
2021/08/28 02:06:20;;;;;;;21.83;7.85;;;19.30;99.90;;;19.71;75.62;101977.91;5098006;28;20475;-74
2021/08/28 02:08:55;;;;;;;20.27;7.57;;;19.30;99.90;;;19.51;75.67;101956.03;5097589;28;20052;-74
2021/08/28 02:11:30;;;;;;;16.75;6.75;;;19.20;99.90;;;19.61;76.01;101979.03;5098044;28;20062;-74
2021/08/28 02:14:07;;;;;;;18.63;7.13;;;19.20;99.90;;;19.60;76.28;101971.03;5097910;28;20397;-74
2021/08/28 02:16:38;;;;;;;16.80;6.80;;;19.10;99.90;;;19.69;76.39;101989.59;5097936;28;20044;-74
2021/08/28 02:19:12;;;;;;;17.25;7.80;;;19.20;99.90;;;19.73;76.37;101981.44;5097902;28;20054;-74
2021/08/28 02:22:15;;;;;;;13.52;6.43;;;19.20;99.90;;;19.80;76.08;101984.88;5042559;28;20049;-73
2021/08/28 02:25:22;;;;;;;18.98;7.85;;;19.20;99.90;;;19.73;76.23;101975.19;5097687;28;20514;-74
2021/08/28 02:28:00;;;;;;;16.40;6.82;;;19.30;99.90;;;19.72;76.33;101970.75;5097357;28;20047;-74
2021/08/28 02:30:32;;;;;;;15.90;6.50;;;19.30;99.90;;;19.83;76.23;101984.78;5097585;28;20508;-74
2021/08/28 02:33:10;;;;;;;17.48;7.57;;;19.40;99.90;;;19.79;76.07;101978.63;5097542;28;20066;-74
2021/08/28 02:35:54;;;;;;;18.00;6.85;;;19.40;99.90;;;19.91;76.16;101985.47;5097561;28;20066;-74
2021/08/28 02:38:24;;;;;;;17.60;6.93;;;19.50;99.90;;;18.72;75.99;101765.66;5097314;28;20526;-74
2021/08/28 02:40:55;;;;;;;16.65;6.95;;;19.50;99.90;;;20.08;75.97;101987.72;5097480;28;20052;-74
2021/08/28 02:43:25;;;;;;;20.42;7.18;;;19.60;99.90;;;20.04;75.72;101978.88;5097220;28;20051;-73
2021/08/28 02:45:59;;;;;;;20.70;7.78;;;19.60;99.90;;;19.98;75.63;101988.88;5097399;28;20498;-74
2021/08/28 02:48:31;;;;;;;14.38;6.68;;;19.60;99.90;;;20.01;75.67;101978.97;5097505;28;20058;-74
2021/08/28 02:51:05;;;;;;;18.35;7.13;;;19.60;99.90;;;19.78;75.73;101958.03;5097202;28;20491;-74
2021/08/28 02:53:39;;;;;;;12.15;6.95;;;19.50;99.90;;;20.01;75.44;101973.59;5097103;28;20043;-74
2021/08/28 02:56:08;;;;;;;16.25;6.70;;;19.60;99.90;;;20.04;75.28;101980.66;5097107;28;20527;-74
2021/08/28 02:58:38;;;;;;;15.27;6.63;;;19.70;99.90;;;19.74;75.13;101944.75;5096845;28;20039;-75
2021/08/28 03:01:09;;;;;;;14.73;6.55;;;19.70;99.90;;;20.02;74.92;101982.50;5096964;28;20043;-75
2021/08/28 03:03:40;;;;;;;14.75;6.40;;;19.60;99.90;;;19.91;74.87;101985.47;5096958;28;20051;-75
2021/08/28 03:06:11;;;;;;;19.73;6.97;;;19.60;99.90;;;19.81;75.03;101973.19;5096819;28;20048;-75
2021/08/28 03:08:44;;;;;;;19.17;7.20;;;19.40;99.90;;;19.50;75.30;101961.44;5096934;28;20052;-75
2021/08/28 03:11:14;;;;;;;;;;;19.40;99.90;;;19.82;75.35;101974.97;5097289;28;20051;-75
2021/08/28 03:13:46;;;;;;;15.63;7.18;;;19.40;99.90;;;19.76;75.21;101967.06;5096771;28;19919;-75
2021/08/28 03:16:16;;;;;;;15.32;6.25;;;19.40;99.90;;;19.80;75.16;101982.19;5096953;28;20052;-75
2021/08/28 03:18:50;;;;;;;12.23;7.00;;;19.40;99.90;;;19.72;75.25;101968.94;5096226;28;20047;-75
2021/08/28 03:21:21;;;;;;;16.65;6.90;;;19.30;99.90;;;19.68;75.14;101964.56;5096717;28;20116;-75
2021/08/28 03:23:50;;;;;;;17.92;6.90;;;19.30;99.90;;;19.76;74.99;101967.06;5114949;28;20039;-74
2021/08/28 03:26:23;;;;;;;13.32;5.80;;;19.30;99.90;;;19.72;74.45;101970.75;5096528;28;20043;-74
2021/08/28 03:28:53;;;;;;;12.32;6.22;;;19.40;99.90;;;19.71;74.61;101966.28;5096837;28;20048;-74
2021/08/28 03:31:25;;;;;;;16.05;7.03;;;19.30;99.90;;;19.70;74.56;101970.75;5096462;28;20051;-74
2021/08/28 03:33:59;;;;;;;14.43;6.22;;;19.30;99.90;;;19.69;74.44;101962.75;5096377;28;20405;-74
2021/08/28 03:36:28;;;;;;;14.75;6.43;;;19.30;99.90;;;19.54;74.53;101974.75;5114432;28;20040;-74
2021/08/28 03:38:57;;;;;;;16.10;6.57;;;19.30;99.90;;;19.74;74.32;101972.47;5095960;28;20042;-74
2021/08/28 03:41:26;;;;;;;13.63;6.22;;;19.30;99.90;;;19.72;74.23;101973.44;5096384;28;20051;-74
2021/08/28 03:43:55;;;;;;;26.27;7.57;;;19.30;99.90;;;19.71;74.31;101972.53;5095953;28;20142;-74
2021/08/28 03:46:25;;;;;;;14.07;6.88;;;19.30;99.90;;;19.63;74.43;101974.53;5096156;28;20055;-75
2021/08/28 03:48:55;;;;;;;15.18;6.60;;;19.30;99.90;;;18.86;74.35;101835.94;5096049;28;20444;-75
2021/08/28 03:51:24;;;;;;;14.90;6.97;;;19.30;99.90;;;19.63;74.35;101962.91;5096313;28;20100;-75
2021/08/28 03:53:52;;;;;;;16.17;7.38;;;19.30;99.90;;;19.63;74.46;101973.63;5096015;28;20048;-74
2021/08/28 03:56:21;;;;;;;12.43;6.53;;;19.30;99.90;;;19.61;74.57;101970.09;5096025;28;20048;-74
2021/08/28 03:58:50;;;;;;;18.15;7.22;;;19.30;99.90;;;19.41;74.44;101941.09;5095987;28;20077;-74
2021/08/28 04:01:20;;;;;;;22.90;7.60;;;19.30;99.90;;;19.63;74.78;101973.63;5095849;28;20036;-75
2021/08/28 04:03:49;;;;;;;13.15;6.32;;;19.20;99.90;;;19.65;74.80;101971.81;5095907;28;20130;-74
2021/08/28 04:06:19;;;;;;;15.43;7.82;;;19.30;99.90;;;19.72;74.49;101978.81;5095582;28;20151;-74
2021/08/28 04:08:48;;;;;;;13.50;6.88;;;19.30;99.90;;;19.68;74.63;101974.44;5095439;28;20050;-74
2021/08/28 04:11:17;;;;;;;15.73;7.63;;;19.30;99.90;;;19.64;74.84;101981.69;5095762;28;20498;-75
2021/08/28 04:13:46;;;;;;;14.88;7.00;;;19.20;99.90;;;19.49;75.06;101951.63;5095773;28;20043;-75
2021/08/28 04:16:15;;;;;;;19.77;7.38;;;19.20;99.90;;;19.70;75.00;101977.97;5113943;28;20086;-75
2021/08/28 04:18:48;;;;;;;20.92;7.25;;;19.30;99.90;;;19.18;74.88;101873.59;5095670;28;20042;-74
2021/08/28 04:21:53;;;;;;;18.17;7.78;;;19.30;99.90;;;19.63;75.27;101973.63;5096071;28;20043;-75
2021/08/28 04:24:44;;;;;;;13.18;6.90;;;19.20;99.90;;;19.66;75.89;101976.25;5112972;28;20055;-75
2021/08/28 04:27:35;;;;;;;12.95;7.10;;;19.30;99.90;;;19.67;75.86;101978.00;5112976;28;20494;-75
2021/08/28 04:30:08;;;;;;;14.45;7.80;;;19.30;99.90;;;19.56;75.58;101953.25;5095209;28;20555;-74
2021/08/28 04:32:40;;;;;;;13.13;6.80;;;19.30;99.90;;;19.66;75.52;101978.94;5095562;28;20040;-74
2021/08/28 04:35:10;;;;;;;21.85;8.05;;;19.30;99.90;;;19.56;75.42;101956.81;5095496;28;20060;-74
2021/08/28 04:37:44;;;;;;;18.40;7.43;;;19.30;99.90;;;19.52;75.44;101940.81;5094983;28;20047;-74
2021/08/28 04:40:14;;;;;;;17.92;7.22;;;19.30;99.90;;;19.46;75.77;101935.59;5095467;28;20051;-73
2021/08/28 04:42:43;;;;;;;14.98;6.90;;;19.30;99.90;;;19.65;76.03;101969.13;5095391;28;20409;-74
2021/08/28 04:45:14;;;;;;;16.67;7.18;;;19.30;99.90;;;19.64;75.91;101973.63;5095341;28;20052;-74
2021/08/28 04:48:07;;;;;;;13.02;6.50;;;19.30;99.90;;;19.71;75.89;101982.41;5095212;28;20048;-74
2021/08/28 04:50:38;;;;;;;16.88;7.68;;;19.30;99.90;;;19.48;76.08;101952.53;5095543;28;20525;-73
2021/08/28 04:53:08;;;;;;;14.15;7.47;;;19.30;99.90;;;19.72;75.98;101990.41;5095316;28;20054;-73
2021/08/28 04:55:36;;;;;;;17.25;6.90;;;19.30;99.90;;;19.71;76.06;101982.41;5095131;28;20044;-73
2021/08/28 04:58:05;;;;;;;11.43;7.00;;;19.30;99.90;;;19.74;75.89;101982.34;5095424;28;20032;-73
2021/08/28 05:00:36;;;;;;;17.60;7.75;;;19.30;99.90;;;19.71;75.79;101979.72;5095376;28;20455;-74
2021/08/28 05:03:38;;;;;;;16.30;7.32;;;19.40;99.90;;;19.80;75.69;101999.16;5095178;28;20054;-73
2021/08/28 05:06:07;;;;;;;15.32;6.93;;;19.40;99.90;;;19.84;75.41;101997.28;5094955;28;20048;-75
2021/08/28 05:08:36;;;;;;;17.33;7.75;;;19.50;99.90;;;19.91;75.15;102006.09;5113447;28;20401;-74
2021/08/28 05:11:05;;;;;;;15.35;7.47;;;19.50;99.90;;;19.78;75.25;102000.16;5095323;28;20062;-74
2021/08/28 05:13:34;;;;;;;15.98;7.43;;;19.40;99.90;;;19.75;75.66;101994.81;5094824;28;20104;-74
2021/08/28 05:16:02;;;;;;;15.10;7.25;;;19.40;99.90;;;19.74;75.54;102003.81;5094930;28;20048;-74
2021/08/28 05:18:31;;;;;;;13.90;6.90;;;19.30;99.90;;;19.72;75.95;102002.97;5094957;28;20077;-74
2021/08/28 05:21:00;;;;;;;16.52;6.82;;;19.30;99.90;;;19.63;75.85;101987.06;5094996;28;20050;-74
2021/08/28 05:23:48;;;;;;;16.08;7.43;;;19.30;99.90;;;19.67;75.58;102002.19;5113033;28;20583;-74
2021/08/28 05:26:34;;;;;;;14.57;6.60;;;19.30;99.90;;;19.51;75.74;101980.19;5094840;28;20048;-74
2021/08/28 05:29:02;;;;;;;16.70;7.10;;;19.30;99.90;;;19.69;75.80;102005.72;5112858;28;20531;-74
2021/08/28 05:31:31;;;;;;;17.00;7.35;;;19.30;99.90;;;19.66;75.63;102011.16;5094881;28;20118;-74
2021/08/28 05:33:59;;;;;;;15.85;7.20;;;19.20;99.90;;;19.68;75.45;102012.00;5094760;28;20677;-74
2021/08/28 05:36:44;;;;;;;15.93;6.90;;;19.30;99.90;;;19.72;75.31;102011.88;5094741;28;20047;-73
2021/08/28 05:39:40;;;;;;;15.45;6.85;;;19.30;99.90;;;19.56;75.62;101993.50;5112637;28;20047;-74
2021/08/28 05:42:09;;;;;;;12.75;6.65;;;19.30;99.90;;;19.74;75.36;102015.41;5094500;28;20040;-73
2021/08/28 05:44:38;;;;;;;15.10;6.13;;;19.30;99.90;;;19.67;75.27;102011.13;5097891;28;20544;-73
2021/08/28 05:47:06;;;;;;;13.15;6.65;;;19.30;99.90;;;19.67;75.21;102004.88;5116413;28;20130;-72
2021/08/28 05:49:35;;;;;;;13.25;6.72;;;19.30;99.90;;;19.81;74.90;102016.16;5098044;28;20048;-73
2021/08/28 05:52:07;;;;;;;13.90;6.75;;;19.40;99.90;;;19.60;75.06;101984.47;5097883;28;20071;-73
2021/08/28 05:54:36;;;;;;;12.02;6.10;;;19.30;99.90;;;19.82;75.03;102019.75;5097676;28;20050;-73
2021/08/28 05:57:06;;;;;;;16.17;6.85;;;19.40;99.90;;;19.89;75.05;102015.97;5097734;28;20048;-73
2021/08/28 05:59:35;;;;;;;;;;;19.50;99.90;;;19.90;75.21;102020.44;5116569;28;20047;-73
2021/08/28 06:02:06;;;;;;;18.73;6.88;;;19.50;99.90;;;19.98;74.67;102021.13;5097654;28;19919;-73
2021/08/28 06:04:38;;;;;;;15.80;6.50;;;19.60;99.90;;;20.08;74.50;102028.03;5097641;28;20048;-73
2021/08/28 06:07:09;;;;;;;17.35;7.20;;;19.60;99.90;;;20.24;74.86;102027.66;5116032;28;20043;-74
2021/08/28 06:09:41;;;;;;;12.32;6.47;;;19.80;99.90;;;20.35;73.83;102021.97;5116443;28;20139;-73
2021/08/28 06:12:29;;;;;;;13.57;6.38;;;20.00;99.90;;;20.55;73.82;102031.31;5116263;28;20047;-74
2021/08/28 06:15:27;;;;;;;13.30;6.55;;;20.10;99.90;;;20.72;73.14;102038.00;5093568;28;20051;-73
2021/08/28 06:18:15;;;;;;;13.27;6.50;;;20.30;99.90;;;20.85;72.42;102032.25;5115830;28;20093;-73
2021/08/28 06:20:44;;;;;;;15.38;6.97;;;20.40;99.90;;;20.98;71.79;102032.81;5097523;28;20414;-73
2021/08/28 06:23:13;;;;;;;14.43;6.07;;;20.50;99.90;;;20.95;71.36;102035.56;5097088;28;20126;-73
2021/08/28 06:26:10;;;;;;;13.13;6.57;;;20.60;99.90;;;21.02;70.92;102039.91;5114555;28;20059;-73
2021/08/28 06:28:40;;;;;;;15.15;6.82;;;20.60;99.90;;;21.01;70.89;102036.31;5097010;28;20444;-73
2021/08/28 06:31:09;;;;;;;12.60;7.03;;;20.60;99.90;;;20.97;70.86;102034.59;5097285;28;20139;-74
2021/08/28 06:33:38;;;;;;;17.98;6.50;;;20.50;99.90;;;20.84;71.10;102018.84;5096942;28;20035;-73
2021/08/28 06:36:07;;;;;;;12.23;6.60;;;20.60;99.90;;;20.90;71.35;102035.72;5113503;28;20083;-74
2021/08/28 06:39:01;;;;;;;15.80;7.22;;;20.50;99.90;;;20.78;71.62;102035.16;5075294;28;20047;-73
2021/08/28 06:41:53;;;;;;;11.77;6.05;;;20.40;99.90;;;20.82;71.56;102031.47;5114893;28;20545;-77
2021/08/28 06:44:41;;;;;;;16.88;7.47;;;20.40;99.90;;;20.83;71.80;102035.94;5115907;28;20054;-74
2021/08/28 06:47:28;;;;;;;13.82;6.88;;;20.40;99.90;;;20.86;71.97;102020.59;5114996;28;20382;-74
2021/08/28 06:50:15;;;;;;;14.60;6.57;;;20.50;99.90;;;21.03;71.94;102030.88;5114569;28;20177;-74
2021/08/28 06:53:01;;;;;;;15.52;6.93;;;20.60;99.90;;;21.18;71.85;102036.69;5114719;28;20084;-75
2021/08/28 06:55:56;;;;;;;14.85;6.88;;;20.80;99.90;;;21.42;71.74;102038.69;5075134;28;20047;-75
2021/08/28 06:59:03;;;;;;;17.98;7.00;;;21.10;99.90;;;21.70;71.03;102037.81;5011787;28;20165;-75
2021/08/28 07:01:42;;;;;;;13.68;7.03;;;21.40;99.90;;;21.99;70.20;102037.81;4995454;28;20433;-75
2021/08/28 07:04:34;;;;;;;15.43;6.55;;;21.60;99.90;;;22.12;69.00;102040.03;5067827;28;20489;-74
2021/08/28 07:07:29;;;;;;;14.07;6.45;;;21.80;99.90;;;22.16;68.50;102030.88;5113942;28;20048;-75
2021/08/28 07:09:58;;;;;;;17.80;7.13;;;21.90;99.90;;;22.31;68.32;102040.28;5095974;28;20066;-79
2021/08/28 07:12:26;;;;;;;14.20;6.82;;;21.90;99.90;;;22.34;67.68;102029.38;5095998;28;20040;-82
2021/08/28 07:14:55;;;;;;;15.38;6.35;;;22.00;99.90;;;22.42;67.05;102043.50;5114031;28;20524;-78
2021/08/28 07:17:48;;;;;;;17.30;6.88;;;22.10;99.90;;;22.41;67.09;102042.59;5096035;28;20518;-78
2021/08/28 07:20:17;;;;;;;16.02;6.95;;;22.10;99.90;;;22.20;66.97;102046.03;5114360;28;20071;-79
2021/08/28 07:22:47;;;;;;;11.77;6.28;;;21.90;99.90;;;22.20;66.73;102037.94;5095897;28;20040;-77
2021/08/28 07:25:38;;;;;;;18.73;6.68;;;21.90;99.90;;;22.26;67.24;102050.38;5106085;28;20060;-78
2021/08/28 07:28:09;;;;;;;13.85;6.60;;;21.90;99.90;;;22.19;67.48;102035.31;5095956;28;20044;-78
2021/08/28 07:30:56;;;;;;;12.35;6.72;;;21.80;99.90;;;22.16;67.34;102041.66;5113977;28;20109;-74
2021/08/28 07:33:26;;;;;;;13.20;6.88;;;21.80;99.90;;;22.16;67.42;102043.50;5095904;28;20131;-78
2021/08/28 07:35:55;;;;;;;11.35;6.82;;;21.80;99.90;;;22.10;67.86;102041.00;5114243;28;20040;-78
2021/08/28 07:38:24;;;;;;;13.38;6.47;;;21.80;99.90;;;22.05;67.59;102046.53;5113312;28;20095;-78
2021/08/28 07:40:54;;;;;;;18.83;6.90;;;21.70;99.90;;;22.07;67.89;102044.69;5096024;28;20055;-79
2021/08/28 07:43:23;;;;;;;14.27;6.65;;;21.80;99.90;;;21.81;67.46;102017.72;5095440;28;20290;-74
2021/08/28 07:45:57;;;;;;;12.65;7.00;;;21.70;99.90;;;21.98;67.71;102041.41;5095572;28;20044;-74
2021/08/28 07:48:30;;;;;;;10.68;6.00;;;21.70;99.90;;;21.78;67.24;102036.63;5095827;28;20056;-74
2021/08/28 07:50:59;;;;;;;14.48;6.13;;;21.50;99.90;;;21.80;67.85;102053.66;5095341;28;20112;-73
2021/08/28 07:53:28;;;;;;;12.13;6.18;;;21.50;99.90;;;21.91;68.21;102051.50;5094704;28;20044;-74
2021/08/28 07:56:01;;;;;;;11.48;6.65;;;21.50;99.90;;;21.87;67.60;102055.25;5095355;28;20130;-74
2021/08/28 07:58:31;;;;;;;12.07;6.00;;;21.50;99.90;;;21.97;67.20;102047.75;5095211;28;20048;-74
2021/08/28 08:01:00;;;;;;;14.30;6.53;;;21.60;99.90;;;21.91;67.05;102064.97;5095332;28;20071;-74
2021/08/28 08:03:34;;;;;;;13.45;6.50;;;21.60;99.90;;;21.96;67.24;102057.63;5095091;28;20066;-74
2021/08/28 08:06:21;;;;;;;12.80;6.47;;;21.60;99.90;;;21.91;67.49;102070.34;5112663;28;20047;-72
2021/08/28 08:09:08;;;;;;;12.88;6.53;;;21.60;99.90;;;21.98;66.87;102058.47;5113533;28;20104;-73
2021/08/28 08:11:55;;;;;;;19.20;6.45;;;21.60;99.90;;;22.10;67.41;102071.56;5113394;28;20058;-73
2021/08/28 08:14:58;;;;;;;15.13;6.95;;;21.70;99.90;;;22.13;66.81;102066.06;5112700;28;20047;-73
2021/08/28 08:17:45;;;;;;;12.50;6.15;;;21.80;99.90;;;22.24;66.58;102065.72;5113267;28;20047;-73
2021/08/28 08:20:34;;;;;;;12.98;6.45;;;21.80;99.90;;;22.28;66.43;102073.63;5113273;28;20062;-73
2021/08/28 08:23:29;;;;;;;14.40;7.15;;;21.90;99.90;;;22.22;66.31;102064.88;5108891;28;20455;-73
2021/08/28 08:26:14;;;;;;;16.40;6.65;;;21.90;99.90;;;22.08;66.10;102040.19;5095031;28;20135;-73
2021/08/28 08:29:01;;;;;;;14.15;6.75;;;22.00;99.90;;;22.50;66.41;102075.59;5113342;28;20113;-73
2021/08/28 08:31:48;;;;;;;10.35;6.10;;;22.20;99.90;;;22.72;66.46;102063.16;5112927;28;20090;-73
2021/08/28 08:34:34;;;;;;;13.85;6.57;;;22.50;99.90;;;22.77;64.73;102050.38;5094887;28;20056;-73
2021/08/28 08:37:08;;;;;;;12.65;6.18;;;22.60;99.90;;;23.08;64.19;102073.50;5094530;28;20386;-73
2021/08/28 08:39:37;;;;;;;;;;;22.80;99.90;;;23.38;63.28;102071.53;5113507;28;20040;-73
2021/08/28 08:42:09;;;;;;;10.07;5.90;;;23.10;99.90;;;23.61;62.20;102074.22;5095140;28;19927;-73
2021/08/28 08:44:40;;;;;;;10.15;6.00;;;23.30;99.90;;;23.77;62.26;102059.13;5094441;28;20147;-73
2021/08/28 08:47:10;;;;;;;10.48;5.75;;;23.60;99.90;;;24.00;61.07;102061.78;5094522;28;20082;-73
2021/08/28 08:49:40;;;;;;;12.53;5.90;;;23.80;99.90;;;24.20;60.42;102085.34;5094578;28;20044;-73
2021/08/28 08:52:10;;;;;;;13.07;6.07;;;24.00;99.90;;;24.14;59.42;102088.28;5094961;28;20044;-71
2021/08/28 08:54:59;;;;;;;12.18;6.18;;;23.90;99.90;;;24.08;59.40;102089.44;5112766;28;20075;-72
2021/08/28 08:57:28;;;;;;;13.68;5.47;;;23.80;99.90;;;23.85;59.71;102053.41;5094720;28;20048;-74
2021/08/28 08:59:56;;;;;;;11.60;5.95;;;23.80;99.90;;;24.14;59.31;102085.59;5094753;28;20456;-71
2021/08/28 09:02:25;;;;;;;14.13;6.75;;;23.90;99.90;;;24.01;59.14;102084.31;5094593;28;20406;-71
2021/08/28 09:05:20;;;;;;;9.70;5.40;;;23.80;99.90;;;24.18;58.52;102080.00;5094611;28;20050;-71
2021/08/28 09:07:50;;;;;;;14.18;5.80;;;23.90;99.90;;;24.14;57.41;102091.88;5094101;28;20048;-71
2021/08/28 09:10:19;;;;;;;10.05;5.55;;;23.90;99.90;;;23.98;57.92;102079.03;5094697;28;20043;-71
2021/08/28 09:12:48;;;;;;;12.88;5.47;;;23.70;99.90;;;23.94;57.61;102082.81;5112355;28;20039;-71
2021/08/28 09:15:16;;;;;;;12.63;5.93;;;23.70;99.90;;;24.07;58.41;102079.56;5112483;28;20108;-71
2021/08/28 09:17:57;;;;;;;9.65;5.30;;;23.80;99.90;;;24.29;57.44;102078.69;5113450;28;20039;-72
2021/08/28 09:20:27;;;;;;;9.13;5.75;;;24.00;99.90;;;24.58;57.93;102081.91;5116719;28;20104;-72
2021/08/28 09:23:07;;;;;;;8.50;5.97;;;24.30;99.90;;;24.76;55.85;102086.53;5116214;28;20035;-72
2021/08/28 09:25:39;;;;;;;9.43;5.60;;;24.50;99.90;;;24.70;54.33;102075.94;5116248;28;20584;-72
2021/08/28 09:28:08;;;;;;;11.70;5.97;;;24.60;99.90;;;24.66;55.71;102046.41;5116400;28;20510;-72
2021/08/28 09:30:39;;;;;;;9.77;5.93;;;24.60;99.90;;;24.95;55.81;102092.91;5116365;28;20040;-71
2021/08/28 09:33:10;;;;;;;7.80;5.50;;;24.70;99.90;;;24.78;55.15;102067.53;5116534;28;20043;-69
2021/08/28 09:35:41;;;;;;;10.98;5.90;;;24.60;99.90;;;24.67;56.66;102103.16;5116390;28;20100;-64
2021/08/28 09:38:11;;;;;;;;;;;24.40;99.90;;;24.57;57.01;102107.22;5116388;28;20066;-64
2021/08/28 09:40:41;;;;;;;;;;;24.40;99.90;;;24.27;58.03;102094.09;5116945;28;19919;-65
2021/08/28 09:43:15;;;;;;;14.02;6.93;;;24.20;99.90;;;24.15;58.49;102080.16;5116529;28;20378;-65
2021/08/28 09:45:46;;;;;;;10.27;6.35;;;24.10;99.90;;;24.26;58.95;102105.84;5098540;28;20104;-64
2021/08/28 09:48:17;;;;;;;9.65;6.32;;;24.00;99.90;;;24.21;59.09;102106.06;5116518;28;20054;-64
2021/08/28 09:50:47;;;;;;;11.88;6.35;;;23.90;99.90;;;24.26;59.82;102105.84;5116607;28;20043;-66
2021/08/28 09:53:39;;;;;;;10.75;6.40;;;23.90;99.90;;;24.05;60.32;102105.78;5116426;28;20163;-68
2021/08/28 09:56:09;;;;;;;12.15;6.45;;;23.80;99.90;;;24.19;60.96;102110.63;5116741;28;20073;-68
2021/08/28 09:58:41;;;;;;;10.43;6.28;;;23.80;99.90;;;24.33;61.03;102110.06;5116305;28;20093;-68
2021/08/28 10:01:10;;;;;;;12.18;6.65;;;23.90;99.90;;;24.44;59.88;102110.50;5116519;28;20093;-66
2021/08/28 10:03:38;;;;;;;11.93;6.82;;;24.10;99.90;;;24.57;60.64;102095.50;5116516;28;20119;-67
2021/08/28 10:06:07;;;;;;;10.65;6.10;;;24.30;99.90;;;24.72;59.98;102101.16;5115861;28;20506;-67
2021/08/28 10:08:37;;;;;;;10.25;5.90;;;24.40;99.90;;;24.95;59.40;102108.31;5116069;28;20124;-69
2021/08/28 10:11:06;;;;;;;11.10;6.25;;;24.70;99.90;;;24.98;58.59;102078.38;5116298;28;20055;-68
2021/08/28 10:13:35;;;;;;;11.68;6.25;;;24.80;99.90;;;25.00;57.88;102101.72;5116209;28;20435;-68
2021/08/28 10:16:05;;;;;;;11.45;6.05;;;24.80;99.90;;;24.57;57.22;102047.66;5116331;28;20088;-67
2021/08/28 10:18:37;;;;;;;10.75;5.90;;;24.60;99.90;;;24.64;56.85;102097.88;5116156;28;20428;-64
2021/08/28 10:21:09;;;;;;;11.05;5.95;;;24.40;99.90;;;24.33;56.37;102104.66;5115854;28;20043;-65
2021/08/28 10:23:42;;;;;;;11.13;6.55;;;24.10;99.90;;;24.30;56.78;102102.97;5097935;28;20043;-64
2021/08/28 10:26:12;;;;;;;14.85;6.20;;;24.00;99.90;;;24.26;57.25;102139.19;5115996;28;20039;-64
2021/08/28 10:28:41;;;;;;;10.67;5.87;;;24.00;99.90;;;24.23;55.88;102100.56;5115429;28;20043;-68
2021/08/28 10:31:11;;;;;;;9.85;6.40;;;23.90;99.90;;;24.05;56.36;102070.63;5115580;28;20122;-67
2021/08/28 10:33:41;;;;;;;12.07;6.90;;;23.90;99.90;;;24.20;56.60;102103.41;5115976;28;20052;-68
2021/08/28 10:36:10;;;;;;;11.40;6.55;;;23.90;99.90;;;24.29;56.11;102098.50;5115469;28;20043;-63
2021/08/28 10:38:43;;;;;;;10.75;5.97;;;24.00;99.90;;;24.49;56.44;102097.63;5115581;28;20146;-66